createdAt,value
2022-11-09T05:00:20.345Z,21.30
2022-11-09T05:02:49.155Z,23.00
2022-11-09T05:05:16.366Z,21.50
2022-11-09T05:07:44.142Z,21.90
2022-11-09T05:10:11.974Z,22.50
2022-11-09T05:12:44.782Z,23.90
2022-11-09T05:15:13.887Z,21.90
2022-11-09T05:17:41.513Z,22.90
2022-11-09T05:20:09.852Z,19.80
2022-11-09T05:22:59.396Z,20.50
2022-11-09T05:25:26.981Z,21.50
2022-11-09T05:27:55.062Z,21.50
2022-11-09T05:30:23.505Z,23.90
2022-11-09T05:32:54.903Z,23.30
2022-11-09T05:35:22.609Z,24.10
2022-11-09T05:37:51.358Z,23.90
2022-11-09T05:40:20.826Z,23.40
2022-11-09T05:42:48.020Z,20.80
2022-11-09T05:45:41.523Z,23.10
2022-11-09T05:48:07.681Z,27.70
2022-11-09T05:50:35.992Z,36.00
2022-11-09T05:53:13.151Z,34.80
2022-11-09T05:55:40.583Z,31.50
2022-11-09T05:58:08.765Z,30.40
2022-11-09T06:00:36.500Z,26.10
2022-11-09T06:03:09.496Z,28.80
2022-11-09T06:05:40.529Z,22.80
2022-11-09T06:08:14.580Z,26.40
2022-11-09T06:10:43.670Z,23.00
2022-11-09T06:13:12.108Z,27.50
2022-11-09T06:15:39.782Z,29.20
2022-11-09T06:18:07.760Z,26.50
2022-11-09T06:20:36.195Z,26.90
2022-11-09T06:23:04.533Z,24.10
2022-11-09T06:25:33.719Z,29.30
2022-11-09T06:28:02.649Z,26.00
2022-11-09T06:30:31.671Z,27.00
2022-11-09T06:33:01.127Z,29.80
2022-11-09T06:35:29.330Z,33.70
2022-11-09T06:38:01.472Z,30.80
2022-11-09T06:40:29.267Z,29.90
2022-11-09T06:42:59.619Z,27.90
2022-11-09T06:45:29.077Z,27.90
2022-11-09T06:48:01.121Z,25.70
2022-11-09T06:50:31.005Z,29.10
2022-11-09T06:53:00.755Z,27.40
2022-11-09T06:55:30.232Z,30.10
2022-11-09T06:57:59.072Z,27.20
2022-11-09T07:00:28.823Z,26.40
2022-11-09T07:02:56.018Z,27.50
2022-11-09T07:05:23.893Z,26.90
2022-11-09T07:07:50.886Z,27.70
2022-11-09T07:10:18.105Z,28.60
2022-11-09T07:12:45.492Z,25.40
2022-11-09T07:15:13.057Z,26.60
2022-11-09T07:17:41.551Z,31.20
2022-11-09T07:20:10.564Z,26.10
2022-11-09T07:22:40.111Z,30.40
2022-11-09T07:25:08.871Z,30.90
2022-11-09T07:27:36.363Z,26.40
2022-11-09T07:30:04.676Z,27.70
2022-11-09T07:35:23.815Z,30.50
2022-11-09T07:37:50.769Z,38.40
2022-11-09T07:40:17.788Z,31.10
2022-11-09T07:42:44.850Z,28.00
2022-11-09T07:45:12.232Z,27.90
2022-11-09T07:47:40.064Z,28.20
2022-11-09T07:50:07.566Z,32.40
2022-11-09T07:52:34.638Z,27.50
2022-11-09T07:55:01.692Z,33.10
2022-11-09T07:57:28.686Z,31.00
2022-11-09T07:59:55.712Z,28.80
2022-11-09T08:02:23.047Z,32.30
2022-11-09T08:04:50.135Z,31.20
2022-11-09T08:07:17.276Z,29.70
2022-11-09T08:09:44.402Z,29.70
2022-11-09T08:12:11.416Z,31.60
2022-11-09T08:14:38.526Z,31.00
2022-11-09T08:17:05.734Z,30.50
2022-11-09T08:19:32.952Z,26.50
2022-11-09T08:22:00.559Z,29.10
2022-11-09T08:24:27.592Z,29.50
2022-11-09T08:26:56.128Z,27.10
2022-11-09T08:29:23.436Z,29.80
2022-11-09T08:31:51.786Z,34.00
2022-11-09T08:34:20.060Z,36.10
2022-11-09T08:36:47.693Z,43.60
2022-11-09T08:39:14.704Z,33.30
2022-11-09T08:41:42.128Z,30.40
2022-11-09T08:44:09.231Z,32.60
2022-11-09T08:46:41.088Z,31.00
2022-11-09T08:49:09.175Z,32.10
2022-11-09T08:51:37.017Z,29.90
2022-11-09T08:54:04.100Z,29.70
2022-11-09T08:56:31.246Z,33.80
2022-11-09T08:58:58.313Z,42.00
2022-11-09T09:01:25.801Z,37.20
2022-11-09T09:03:52.962Z,40.30
2022-11-09T09:06:20.101Z,33.60
2022-11-09T09:08:47.090Z,36.70
2022-11-09T09:11:14.320Z,31.90
2022-11-09T09:13:43.599Z,41.00
2022-11-09T09:16:15.532Z,42.70
2022-11-09T09:18:43.306Z,53.30
2022-11-09T09:21:11.440Z,39.60
2022-11-09T09:23:38.631Z,66.70
2022-11-09T09:26:06.173Z,86.30
2022-11-09T09:28:34.143Z,31.90
2022-11-09T09:31:02.311Z,34.40
2022-11-09T09:33:29.954Z,27.30
2022-11-09T09:35:58.361Z,35.10
2022-11-09T09:38:27.601Z,26.70
2022-11-09T09:41:03.827Z,27.20
2022-11-09T09:43:43.531Z,30.70
2022-11-09T09:47:03.729Z,26.20
2022-11-09T09:49:35.564Z,27.60
2022-11-09T09:52:17.978Z,26.60
2022-11-09T09:54:55.026Z,31.30
2022-11-09T09:57:23.478Z,32.90
2022-11-09T09:59:57.647Z,28.70
2022-11-09T10:02:28.595Z,31.20
2022-11-09T10:05:02.350Z,37.40
2022-11-09T10:07:44.212Z,27.50
2022-11-09T10:10:50.368Z,28.00
2022-11-09T10:13:35.545Z,25.90
2022-11-09T10:16:44.166Z,32.70
2022-11-09T10:19:23.658Z,29.10
2022-11-09T10:21:50.711Z,31.10
2022-11-09T10:24:48.521Z,27.50
2022-11-09T10:27:20.476Z,25.10
2022-11-09T10:29:50.621Z,32.60
2022-11-09T10:32:23.578Z,32.50
2022-11-09T10:35:13.019Z,30.60
2022-11-09T10:37:39.947Z,25.60
2022-11-09T10:40:17.269Z,29.30
2022-11-09T10:43:10.542Z,28.50
2022-11-09T10:46:05.291Z,62.30
2022-11-09T10:48:53.532Z,92.60
2022-11-09T10:51:46.789Z,39.20
2022-11-09T10:54:38.348Z,32.80
2022-11-09T10:57:25.987Z,32.30
2022-11-09T11:00:17.317Z,33.10
2022-11-09T11:03:35.964Z,30.00
2022-11-09T11:06:21.394Z,27.00
2022-11-09T11:09:07.954Z,33.90
2022-11-09T11:12:22.662Z,26.30
2022-11-09T11:15:29.133Z,32.50
2022-11-09T11:18:23.336Z,25.90
2022-11-09T11:21:19.391Z,26.90
2022-11-09T11:24:16.941Z,28.60
2022-11-09T11:27:10.914Z,27.90
2022-11-09T11:30:11.663Z,26.50
2022-11-09T11:32:59.211Z,27.20
2022-11-09T11:36:01.465Z,25.30
2022-11-09T11:38:58.290Z,25.30
2022-11-09T11:41:56.119Z,25.50
2022-11-09T11:45:18.504Z,23.00
2022-11-09T11:48:28.855Z,24.60
2022-11-09T11:51:18.017Z,26.30
2022-11-09T11:54:34.794Z,23.90
2022-11-09T11:57:58.439Z,22.70
2022-11-09T12:01:14.172Z,26.20
2022-11-09T12:04:21.796Z,29.00
2022-11-09T12:07:26.377Z,26.50
2022-11-09T12:10:29.090Z,22.10
2022-11-09T12:13:43.412Z,27.10
2022-11-09T12:16:44.827Z,24.80
2022-11-09T12:20:04.951Z,23.00
2022-11-09T12:23:18.828Z,22.70
2022-11-09T12:26:24.387Z,20.50
2022-11-09T12:29:19.607Z,27.00
2022-11-09T12:32:25.808Z,24.80
2022-11-09T12:35:50.986Z,26.70
2022-11-09T12:38:46.128Z,26.40
2022-11-09T12:41:37.477Z,29.80
2022-11-09T12:44:29.285Z,27.40
2022-11-09T12:47:20.637Z,25.50
2022-11-09T12:50:13.084Z,23.10
2022-11-09T12:53:02.530Z,23.10
2022-11-09T12:55:52.212Z,29.30
2022-11-09T12:58:40.851Z,29.10
2022-11-09T13:01:29.850Z,34.40
2022-11-09T13:04:21.397Z,28.80
2022-11-09T13:07:08.497Z,29.70
2022-11-09T13:09:57.447Z,31.50
2022-11-09T13:12:43.465Z,28.10
2022-11-09T13:15:33.754Z,28.70
2022-11-09T13:18:35.430Z,29.50
2022-11-09T13:21:21.766Z,27.20
2022-11-09T13:24:32.710Z,27.20
2022-11-09T13:27:48.892Z,26.70
2022-11-09T13:30:43.210Z,24.70
2022-11-09T13:33:33.441Z,26.30
2022-11-09T13:36:20.716Z,30.50
2022-11-09T13:39:29.931Z,30.00
2022-11-09T13:42:30.483Z,39.20
2022-11-09T13:45:30.236Z,41.90
2022-11-09T13:48:34.895Z,52.40
2022-11-09T13:51:22.639Z,56.20
2022-11-09T13:54:34.811Z,44.30
2022-11-09T13:57:22.531Z,41.10
2022-11-09T14:00:19.044Z,45.20
2022-11-09T14:03:26.466Z,45.70
2022-11-09T14:06:14.040Z,43.20
2022-11-09T14:09:26.267Z,32.40
2022-11-09T14:12:43.930Z,27.40
2022-11-09T14:15:50.244Z,28.30
2022-11-09T14:19:14.539Z,32.20
2022-11-09T14:22:00.557Z,31.60
2022-11-09T14:24:47.315Z,33.60
2022-11-09T14:27:34.293Z,35.00
2022-11-09T14:30:23.715Z,44.20
2022-11-09T14:33:35.071Z,33.50
2022-11-09T14:36:21.050Z,38.50
2022-11-09T14:39:23.410Z,39.80
2022-11-09T14:42:19.186Z,30.10
2022-11-09T14:45:08.298Z,38.90
2022-11-09T14:47:58.675Z,39.20
2022-11-09T14:50:45.835Z,36.80
2022-11-09T14:53:36.237Z,40.40
2022-11-09T14:56:46.859Z,40.70
2022-11-09T14:59:56.694Z,41.20
2022-11-09T15:02:42.755Z,37.70
2022-11-09T15:05:47.003Z,39.70
2022-11-09T15:08:32.823Z,36.30
2022-11-09T15:11:19.371Z,37.20
2022-11-09T15:14:34.924Z,37.30
2022-11-09T15:17:27.832Z,38.40
2022-11-09T15:20:13.965Z,38.70
2022-11-09T15:23:04.391Z,33.20
2022-11-09T15:25:52.062Z,31.90
2022-11-09T15:28:50.272Z,34.10
2022-11-09T15:31:36.864Z,34.80
2022-11-09T15:34:27.853Z,34.20
2022-11-09T15:37:30.635Z,27.70
2022-11-09T15:40:20.410Z,39.20
2022-11-09T15:43:30.700Z,42.20
2022-11-09T15:46:30.758Z,42.90
2022-11-09T15:49:19.724Z,40.10
2022-11-09T15:52:06.536Z,38.50
2022-11-09T15:54:52.278Z,37.60
2022-11-09T15:57:38.588Z,41.50
2022-11-09T16:00:24.625Z,39.50
2022-11-09T16:03:12.400Z,39.50
2022-11-09T16:05:59.703Z,45.80
2022-11-09T16:08:50.558Z,54.80
2022-11-09T16:11:36.879Z,71.30
2022-11-09T16:14:23.507Z,75.90
2022-11-09T16:17:09.413Z,55.90
2022-11-09T16:19:55.220Z,80.00
2022-11-09T16:22:41.281Z,89.40
2022-11-09T16:25:27.634Z,77.80
2022-11-09T16:28:14.306Z,59.80
2022-11-09T16:31:01.291Z,55.40
2022-11-09T16:33:48.089Z,57.50
2022-11-09T16:36:34.454Z,60.60
2022-11-09T16:39:21.396Z,53.80
2022-11-09T16:42:11.022Z,53.00
2022-11-09T16:45:04.860Z,56.20
2022-11-09T16:47:57.469Z,53.10
2022-11-09T16:50:45.783Z,54.00
2022-11-09T16:53:32.350Z,56.60
2022-11-09T16:56:18.835Z,46.80
2022-11-09T16:59:05.555Z,51.00
2022-11-09T17:01:53.934Z,88.10
2022-11-09T17:04:40.555Z,64.00
2022-11-09T17:07:26.890Z,141.90
2022-11-09T17:10:13.547Z,154.10
2022-11-09T17:12:59.494Z,69.90
2022-11-09T17:15:49.947Z,61.30
2022-11-09T17:18:38.098Z,59.60
2022-11-09T17:21:25.852Z,50.10
2022-11-09T17:24:11.705Z,51.60
2022-11-09T17:26:57.884Z,49.10
2022-11-09T17:29:44.041Z,52.60
2022-11-09T17:32:30.032Z,68.80
2022-11-09T17:35:15.878Z,52.60
2022-11-09T17:38:01.576Z,53.70
2022-11-09T17:40:47.405Z,52.10
2022-11-09T17:43:35.971Z,49.20
2022-11-09T17:46:22.743Z,41.90
2022-11-09T17:49:10.448Z,36.80
2022-11-09T17:51:57.246Z,44.80
2022-11-09T17:54:43.681Z,51.30
2022-11-09T17:57:29.295Z,43.10
2022-11-09T18:00:16.012Z,44.40
2022-11-09T18:03:01.570Z,60.80
2022-11-09T18:05:48.206Z,44.90
2022-11-09T18:08:34.004Z,45.80
2022-11-09T18:11:20.161Z,45.60
2022-11-09T18:14:07.259Z,41.50
2022-11-09T18:16:53.267Z,40.10
2022-11-09T18:19:39.890Z,46.40
2022-11-09T18:22:25.690Z,42.50
2022-11-09T18:25:12.808Z,40.80
2022-11-09T18:27:59.398Z,37.90
2022-11-09T18:30:45.824Z,42.30
2022-11-09T18:33:32.628Z,39.80
2022-11-09T18:36:22.124Z,54.10
2022-11-09T18:39:08.202Z,54.60
2022-11-09T18:41:55.086Z,47.80
2022-11-09T18:44:40.867Z,48.10
2022-11-09T18:47:26.639Z,52.10
2022-11-09T18:50:12.776Z,54.20
2022-11-09T18:52:58.733Z,54.20
2022-11-09T18:55:44.754Z,48.80
2022-11-09T18:58:31.760Z,58.00
2022-11-09T19:01:17.607Z,68.20
2022-11-09T19:04:03.574Z,51.60
2022-11-09T19:07:11.809Z,46.80
2022-11-09T19:09:57.881Z,42.90
2022-11-09T19:12:43.967Z,40.40
2022-11-09T19:15:30.606Z,46.60
2022-11-09T19:18:16.584Z,47.10
2022-11-09T19:21:03.812Z,48.20
2022-11-09T19:23:50.757Z,49.20
2022-11-09T19:26:36.746Z,52.30
2022-11-09T19:29:23.213Z,46.10
2022-11-09T19:32:09.968Z,40.10
2022-11-09T19:34:55.995Z,41.30
2022-11-09T19:37:41.772Z,44.70
2022-11-09T19:40:47.113Z,42.20
2022-11-09T19:43:33.124Z,44.10
2022-11-09T19:46:22.089Z,52.30
2022-11-09T19:49:09.669Z,49.60
2022-11-09T19:51:56.675Z,45.00
2022-11-09T19:54:43.646Z,44.40
2022-11-09T19:57:29.843Z,47.10
2022-11-09T20:00:16.799Z,42.20
2022-11-09T20:03:03.738Z,43.80
2022-11-09T20:05:55.533Z,47.20
2022-11-09T20:08:42.174Z,45.50
2022-11-09T20:11:48.129Z,38.70
2022-11-09T20:14:34.676Z,41.90
2022-11-09T20:17:21.339Z,39.00
2022-11-09T20:20:08.633Z,40.00
2022-11-09T20:22:54.652Z,43.50
2022-11-09T20:25:41.094Z,41.20
2022-11-09T20:28:26.772Z,42.50
2022-11-09T20:31:19.611Z,48.60
2022-11-09T20:34:05.975Z,50.40
2022-11-09T20:36:52.582Z,46.70
2022-11-09T20:39:40.769Z,50.90
2022-11-09T20:42:26.655Z,50.10
2022-11-09T20:45:12.684Z,48.30
2022-11-09T20:48:10.654Z,43.40
2022-11-09T20:51:06.264Z,43.70
2022-11-09T20:53:52.536Z,43.50
2022-11-09T20:56:38.443Z,39.20
2022-11-09T20:59:24.295Z,40.70
2022-11-09T21:02:15.120Z,40.70
2022-11-09T21:05:01.056Z,40.70
2022-11-09T21:07:47.101Z,39.50
2022-11-09T21:10:33.167Z,39.50
2022-11-09T21:13:20.144Z,40.60
2022-11-09T21:16:07.416Z,38.70
2022-11-09T21:18:53.498Z,84.50
2022-11-09T21:21:40.511Z,76.80
2022-11-09T21:24:45.606Z,56.70
2022-11-09T21:27:51.286Z,48.40
2022-11-09T21:30:37.308Z,46.40
2022-11-09T21:33:23.661Z,48.20
2022-11-09T21:36:12.371Z,45.40
2022-11-09T21:38:58.156Z,41.60
2022-11-09T21:41:44.255Z,39.30
2022-11-09T21:44:32.208Z,39.70
2022-11-09T21:47:18.836Z,42.40
2022-11-09T21:50:09.714Z,40.70
2022-11-09T21:52:58.507Z,42.40
2022-11-09T21:55:44.374Z,42.50
2022-11-09T21:58:31.258Z,42.30
2022-11-09T22:01:19.113Z,70.40
2022-11-09T22:04:05.852Z,115.80
2022-11-09T22:06:52.570Z,93.70
2022-11-09T22:10:05.794Z,56.50
2022-11-09T22:13:03.673Z,46.50
2022-11-09T22:16:09.957Z,46.40
2022-11-09T22:19:14.834Z,61.80
2022-11-09T22:22:00.504Z,121.00
2022-11-09T22:24:46.701Z,93.20
2022-11-09T22:27:33.613Z,60.00
2022-11-09T22:30:19.361Z,49.60
2022-11-09T22:33:05.146Z,50.30
2022-11-09T22:35:59.238Z,45.00
2022-11-09T22:41:32.782Z,40.30
2022-11-09T22:44:19.336Z,38.70
2022-11-09T22:47:07.958Z,38.40
2022-11-09T22:49:54.735Z,37.40
2022-11-09T22:52:41.355Z,39.10
2022-11-09T22:55:27.107Z,36.40
2022-11-09T22:58:12.945Z,38.50
2022-11-09T23:01:08.774Z,35.70
2022-11-09T23:03:54.610Z,37.10
2022-11-09T23:06:40.945Z,37.90
2022-11-09T23:09:26.916Z,37.60
2022-11-09T23:12:13.351Z,35.20
2022-11-09T23:15:05.600Z,35.50
2022-11-09T23:18:15.567Z,36.90
2022-11-09T23:21:02.058Z,35.60
2022-11-09T23:23:48.552Z,39.70
2022-11-09T23:26:35.179Z,40.80
2022-11-09T23:29:21.446Z,38.50
2022-11-09T23:32:07.325Z,37.00
2022-11-09T23:34:53.719Z,42.80
2022-11-09T23:37:40.067Z,42.60
2022-11-09T23:40:26.306Z,43.10
2022-11-09T23:43:13.946Z,38.80
2022-11-09T23:46:06.884Z,47.70
2022-11-09T23:48:53.620Z,45.30
2022-11-09T23:51:40.036Z,34.60
2022-11-09T23:54:26.675Z,36.50
2022-11-09T23:57:14.678Z,36.70
